INFORMACIÓN METAR y TAF
METAR FOR YBRK
ADDS - METARS form results

(1355 UTC 19 November 2018)
Data provider http://aviationweather.gov/metar/data/
 
METAR text: YBRK 191330Z AUTO 07006KT 9999 // SCT032 BKN039 OVC045 23/17 Q1016
Conditions at: YBRK (ROCKHAMPTON AIRP, AU) observed 1330 UTC 19 November 2018
Temperature: 23.0°C (73°F)
Dewpoint: 17.0°C (63°F) [RH = 69%]
Pressure (altimeter): 30.00 inches Hg (1016.0 mb)
Winds: from the ENE (70 degrees) at 7 MPH (6 knots; 3.1 m/s)
Visibility: 6 or more miles (10+ km)
Ceiling: 3900 feet AGL
Clouds: scattered clouds at 3200 feet AGL
broken clouds at 3900 feet AGL
overcast cloud deck at 4500 feet AGL
Weather: no significant weather observed at this time

METAR text: YBRK 191300Z AUTO 07005KT 9999 // NCD 23/16 Q1016
Conditions at: YBRK (ROCKHAMPTON AIRP, AU) observed 1300 UTC 19 November 2018
Temperature: 23.0°C (73°F)
Dewpoint: 16.0°C (61°F) [RH = 65%]
Pressure (altimeter): 30.00 inches Hg (1016.0 mb)
Winds: from the ENE (70 degrees) at 6 MPH (5 knots; 2.6 m/s)
Visibility: 6 or more miles (10+ km)
Ceiling: at least 12,000 feet AGL
Clouds: sky clear below 12,000 feet AGL
Weather: no significant weather observed at this time

Forecast for: YBRK (ROCKHAMPTON AIRP, AU)
Text: TAF YBRK 191117Z 1912/2012 12010KT 9999 SCT025
Forecast period: 1200 to 2300 UTC 19 November 2018
Forecast type: FROM: standard forecast or significant change
Winds: from the ESE (120 degrees) at 12 MPH (10 knots; 5.1 m/s)
Visibility: 6 or more miles 10+ km)
Ceiling: at least 12,000 feet AGL
Clouds: scattered clouds at 2500 feet AGL
Weather: no significant weather forecast for this period
Text: FM192300 07012KT 9999 SCT040
Forecast period: 2300 UTC 19 November 2018 to 1200 UTC 20 November 2018
Forecast type: FROM: standard forecast or significant change
Winds: from the ENE (70 degrees) at 14 MPH (12 knots; 6.2 m/s)
Visibility: 6 or more miles 10+ km)
Ceiling: at least 12,000 feet AGL
Clouds: scattered clouds at 4000 feet AGL
Weather: no significant weather forecast for this period

 MAPA DE AEROPUERTO

 INFORMACIÓN DE PISTA
Pista 04 Longitud 5397 ft Ancho 98 ft
Elevación 31 ft Umbral desplazado 0 ft Rumbo de pista 53
Pista 22 Longitud 5397 ft Ancho 98 ft
Elevación 32 ft Umbral desplazado 0 ft Rumbo de pista 233
Pista 15 Longitud 8622 ft Ancho 148 ft
Elevación 33 ft Umbral desplazado 0 ft Rumbo de pista 159
Pista 33 Longitud 8622 ft Ancho 148 ft
Elevación 27 ft Umbral desplazado 0 ft Rumbo de pista 339

 FRECUANCIAS DEL AEROPUERTO
Tipo ATIS Nombre ATIS Frecuencia 116.9 MHZ
Tipo CTAF Nombre CTAF Frecuencia 118.1 MHZ
Tipo FSS Nombre BRISBANE C Frecuencia 119.55 MHZ
Tipo GND Nombre ROCKY GND Frecuencia 121.8 MHZ
Tipo TWR Nombre TWR Frecuencia 118.1 MHZ

 RADIO AYUDAS DEL AEROPUERTO
Tipo VOR-DME Nombre Rockhampton Frecuencia 116900 KHZ
Tipo NDB Nombre Rockhampton Frecuencia 257 KHZ



Powered by Virtual Airlines Manager [v2.6.2]